• Join FlightAware (Why Join?)
  • Login
  • US Flag 
04:56PM EDT


 

Airport Tracker/Info


-or-


 

Live Flight TrackerFlight Track Log ✈ UAL4257 ✈ 03-May-2013 ✈ MMMY / MTY - KIAH

Flight Track Log - Related Links

Times and Time Zones

All times are in EDT time to prevent confusion due to time zone crossing. See the UAL4257 flight status page for this flight to view local times or setup timezone preferences in your user account.

Time Position Orientation Groundspeed Altitude Reporting Facility
EDT Latitude Longitude Course Direction KTS MPH feet Rate Location/Type
12:17PM 26.0200 -99.9003 44° Northeast 289 333 12,900  Level Houston Center
12:18PM 26.1925 -99.6614 44° Northeast  Level Estimated
12:18PM 26.0775 -99.8181 52° Northeast 316 364 14,300  Level Houston Center
12:19PM 26.2646 -99.5833 44° Northeast  Level Estimated
12:19PM 26.1364 -99.7328 52° Northeast 334 384 15,700  Level Houston Center
12:20PM 26.3366 -99.5052 44° Northeast  Level Estimated
12:20PM 26.2092 -99.6267 53° Northeast 349 402 17,300  Level Houston Center
12:21PM 26.4086 -99.4270 44° Northeast  Level Estimated
12:21PM 26.2711 -99.5372 52° Northeast 357 411 18,300  Level Houston Center
12:22PM 26.4805 -99.3487 44° Northeast  Level Estimated
12:22PM 26.3333 -99.4467 53° Northeast 363 418 19,700  Level Houston Center
12:23PM 26.3978 -99.3533 52° Northeast 371 427 21,000 1,260 Climbing Houston Center
12:24PM 26.4644 -99.2603 51° Northeast 378 435 22,400 1,440 Climbing Houston Center
12:25PM 26.5547 -99.1575 46° Northeast 385 443 24,000 1,440 Climbing Houston Center
12:26PM 26.6336 -99.0747 43° Northeast 389 448 25,400 1,260 Climbing Houston Center
12:27PM 26.7156 -98.9975 40° Northeast 388 447 26,700 1,260 Climbing Houston Center
12:28PM 26.7981 -98.9200 40° Northeast 388 447 28,100 1,260 Climbing Houston Center
12:29PM 26.8794 -98.8408 41° Northeast 389 448 29,400 1,200 Climbing Houston Center
12:30PM 26.9600 -98.7608 42° Northeast 389 448 30,700 1,440 Climbing Houston Center
12:32PM 27.0575 -98.6658 41° Northeast 390 449 32,400 1,080 Climbing Houston Center
12:33PM 27.1394 -98.5869 41° Northeast 389 448 33,000 240 Climbing Houston Center
12:34PM 27.2269 -98.5006 41° Northeast 413 475 33,000  Level Houston Center
12:35PM 27.3219 -98.4083 41° Northeast 443 510 33,000  Level Houston Center
12:36PM 27.4403 -98.2900 42° Northeast 470 541 33,000  Level Houston Center
12:37PM 27.5403 -98.1919 41° Northeast 478 550 33,000  Level Houston Center
12:38PM 27.6403 -98.0942 41° Northeast 478 550 33,000  Level Houston Center
12:39PM 27.7381 -97.9956 42° Northeast 474 545 33,000 -60 Level Houston Center
12:40PM 27.8353 -97.8997 41° Northeast 466 536 32,900  Descending Houston Center
12:41PM 27.9325 -97.8039 41° Northeast 465 535 33,000  Climbing Houston Center
12:42PM 28.0394 -97.6981 41° Northeast 462 532 33,000  Level Houston Center
12:43PM 28.1361 -97.6025 41° Northeast 463 533 33,000  Level Houston Center
12:44PM 28.2331 -97.5039 42° Northeast 467 537 33,000  Level Houston Center
12:45PM 28.3503 -97.3867 41° Northeast 470 541 33,000 -180 Level Houston Center
12:46PM 28.4492 -97.2875 41° Northeast 475 547 32,700 -720 Descending Houston Center
12:47PM 28.5464 -97.1914 41° Northeast 464 534 31,600 -1,140 Descending Houston Center
12:48PM 28.6494 -97.1056 36° Northeast 461 531 30,400 -1,260 Descending Houston Center
12:49PM 28.7650 -97.0506 23° Northeast 452 520 29,100 -1,320 Descending Houston Center
12:50PM 28.8978 -96.9758 26° Northeast 445 512 27,700 -1,320 Descending Houston Center
12:51PM 28.9844 -96.8700 47° Northeast 459 528 26,400 -1,560 Descending Houston Center
12:52PM 29.0658 -96.7678 48° Northeast 443 510 24,500 -1,920 Descending Houston Center
12:53PM 29.1464 -96.6678 47° Northeast 434 499 22,400 -2,040 Descending Houston Center
12:54PM 29.2231 -96.5719 47° Northeast 416 479 20,300 -1,800 Descending Houston Center
12:55PM 29.3128 -96.4592 48° Northeast 404 465 18,800 -1,860 Descending Houston Center
12:57PM 29.4053 -96.3431 48° Northeast 412 474 16,200 -2,340 Descending Houston Center
12:57PM 29.4661 -96.2675 47° Northeast 414 476 14,000 -2,100 Descending Houston Center
12:58PM 29.5406 -96.1722 48° Northeast 404 465 12,200 -1,500 Descending Houston Center
12:59PM 29.5936 -96.0728 58° Northeast 367 422 10,900 -1,140 Descending Houston Center
01:01PM 29.6425 -95.9722 61° Northeast 318 366 9,900 -660 Descending Houston Center
01:02PM 29.6961 -95.8686 59° Northeast 297 342 9,500 -960 Descending Houston Center
01:03PM 29.7336 -95.7944 60° Northeast 270 311 7,900 -1,620 Descending Houston Center
01:04PM 29.7708 -95.7181 61° Northeast 254 292 6,300 -960 Descending Houston Center
01:05PM 29.8064 -95.6464 60° Northeast 251 289 6,000 -180 Descending Houston Center
01:06PM 29.8367 -95.5850 60° Northeast 247 284 6,000  Level Houston Center
01:07PM 29.8725 -95.5158 59° Northeast 240 276 6,000  Level Houston Center
01:08PM 29.8961 -95.4486 68° East 251 289 6,000  Level Houston Center
01:09PM 29.8956 -95.3564 90° East 270 311 6,000  Level Houston Center
01:10PM 29.8964 -95.2719 89° East 268 308 6,000 -60 Level Houston Center
01:11PM 29.8967 -95.1928 90° East 254 292 5,900 -840 Descending Houston Center
01:12PM 29.8967 -95.1175 90° East 218 251 4,300 -960 Descending Houston Center
01:13PM 29.9403 -95.0906 28° Northeast 168 193 4,000 -600 Descending Houston Center
01:14PM 29.9758 -95.1103 334° Northwest 161 185 3,100 -840 Descending Houston Center
01:15PM 29.9928 -95.1564 293° West 170 196 2,500 -600 Descending Houston Center
01:15PM 29.9953 -95.1644 290° West 166 191 2,400 -540 Descending Houston Center
01:16PM 29.9933 -95.2094 267° West 156 180 2,000 -540 Descending Houston Center
01:16PM 29.9939 -95.2192 274° West 169 194 1,900 -720 Descending Houston Center
01:17PM 29.9936 -95.2675 270° West 163 188 1,100 -780 Descending Houston Center
01:18PM 29.9922 -95.3108 268° West 122 140 400 -780 Descending Houston Center